createdAt,value
2023-01-26T00:00:10.958Z,26.36
2023-01-26T00:01:16.541Z,26.08
2023-01-26T00:02:18.341Z,26.52
2023-01-26T00:03:20.722Z,26.50
2023-01-26T00:04:22.639Z,26.33
2023-01-26T00:05:24.519Z,26.49
2023-01-26T00:06:26.553Z,26.31
2023-01-26T00:07:29.340Z,26.10
2023-01-26T00:08:35.261Z,26.07
2023-01-26T00:09:37.069Z,26.47
2023-01-26T00:10:40.425Z,26.47
2023-01-26T00:11:42.608Z,26.14
2023-01-26T00:12:44.428Z,25.98
2023-01-26T00:13:50.346Z,26.51
2023-01-26T00:14:52.270Z,26.18
2023-01-26T00:15:54.100Z,26.54
2023-01-26T00:16:55.923Z,26.18
2023-01-26T00:17:57.780Z,26.14
2023-01-26T00:18:59.609Z,26.24
2023-01-26T00:20:01.468Z,26.36
2023-01-26T00:21:03.496Z,26.36
2023-01-26T00:22:05.289Z,26.28
2023-01-26T00:23:07.189Z,26.38
2023-01-26T00:24:09.055Z,26.44
2023-01-26T00:25:10.993Z,26.62
2023-01-26T00:26:18.257Z,26.25
2023-01-26T00:27:20.169Z,26.33
2023-01-26T00:28:21.950Z,26.36
2023-01-26T00:29:23.738Z,26.14
2023-01-26T00:30:25.538Z,26.43
2023-01-26T00:31:28.280Z,26.19
2023-01-26T00:32:30.138Z,26.38
2023-01-26T00:33:32.016Z,26.48
2023-01-26T00:34:33.829Z,26.66
2023-01-26T00:35:35.654Z,26.61
2023-01-26T00:36:37.905Z,26.59
2023-01-26T00:37:42.584Z,26.34
2023-01-26T00:38:44.516Z,26.48
2023-01-26T00:39:46.385Z,26.45
2023-01-26T00:40:48.206Z,26.32
2023-01-26T00:42:08.773Z,26.26
2023-01-26T00:43:10.672Z,26.21
2023-01-26T00:44:12.539Z,26.13
2023-01-26T00:45:14.907Z,26.52
2023-01-26T00:46:16.713Z,26.66
2023-01-26T00:47:19.195Z,26.50
2023-01-26T00:48:23.521Z,26.61
2023-01-26T00:49:26.297Z,26.46
2023-01-26T00:50:28.257Z,26.68
2023-01-26T00:51:31.724Z,26.58
2023-01-26T00:52:33.539Z,26.76
2023-01-26T00:53:35.389Z,26.44
2023-01-26T00:54:37.435Z,26.72
2023-01-26T00:55:39.346Z,26.35
2023-01-26T00:56:41.264Z,26.30
2023-01-26T00:57:43.149Z,26.64
2023-01-26T00:58:45.628Z,26.44
2023-01-26T00:59:47.472Z,26.33
2023-01-26T01:00:49.323Z,26.62
2023-01-26T01:01:52.070Z,26.42
2023-01-26T01:02:56.343Z,26.75
2023-01-26T01:03:59.477Z,26.39
2023-01-26T01:05:01.535Z,26.47
2023-01-26T01:06:03.389Z,26.64
2023-01-26T01:07:05.303Z,26.45
2023-01-26T01:08:08.101Z,26.72
2023-01-26T01:09:10.081Z,26.62
2023-01-26T01:10:12.095Z,26.67
2023-01-26T01:11:14.132Z,26.38
2023-01-26T01:12:15.999Z,26.35
2023-01-26T01:13:17.821Z,26.53
2023-01-26T01:14:19.672Z,26.68
2023-01-26T01:15:21.458Z,26.45
2023-01-26T01:16:23.478Z,27.08
2023-01-26T01:17:26.175Z,26.73
2023-01-26T01:18:28.007Z,26.71
2023-01-26T01:19:29.958Z,26.53
2023-01-26T01:20:31.816Z,26.69
2023-01-26T01:21:33.677Z,26.44
2023-01-26T01:22:36.798Z,26.67
2023-01-26T01:23:39.318Z,26.50
2023-01-26T01:24:41.180Z,26.73
2023-01-26T01:25:43.128Z,26.61
2023-01-26T01:26:45.067Z,26.58
2023-01-26T01:27:46.883Z,26.79
2023-01-26T01:28:48.898Z,26.78
2023-01-26T01:29:51.511Z,26.72
2023-01-26T01:30:53.362Z,26.92
2023-01-26T01:31:55.248Z,26.52
2023-01-26T01:32:58.147Z,26.60
2023-01-26T01:33:59.931Z,26.85
2023-01-26T01:36:06.832Z,26.60
2023-01-26T01:37:08.866Z,26.51
2023-01-26T01:38:10.736Z,26.73
2023-01-26T01:39:12.814Z,26.99
2023-01-26T01:40:15.197Z,26.51
2023-01-26T01:41:20.421Z,26.64
2023-01-26T01:42:22.908Z,26.78
2023-01-26T01:43:26.379Z,26.72
2023-01-26T01:44:28.218Z,26.65
2023-01-26T01:45:47.613Z,26.80
2023-01-26T01:46:57.618Z,26.82
2023-01-26T01:48:04.037Z,26.59
2023-01-26T01:49:25.013Z,26.78
2023-01-26T01:50:28.033Z,26.40
2023-01-26T01:51:35.248Z,26.74
2023-01-26T01:52:37.685Z,26.59
2023-01-26T01:53:42.995Z,26.77
2023-01-26T01:54:53.106Z,26.86
2023-01-26T01:55:59.264Z,26.70
2023-01-26T01:57:05.566Z,26.58
2023-01-26T01:58:08.570Z,26.87
2023-01-26T01:59:12.451Z,26.35
2023-01-26T02:00:20.516Z,26.96
2023-01-26T02:01:24.499Z,26.68
2023-01-26T02:02:27.084Z,26.53
2023-01-26T02:03:31.105Z,26.88
2023-01-26T02:04:33.060Z,26.92
2023-01-26T02:05:56.679Z,26.87
2023-01-26T02:07:00.410Z,26.48
2023-01-26T02:08:04.625Z,26.58
2023-01-26T02:09:08.989Z,26.93
2023-01-26T02:10:20.101Z,26.63
2023-01-26T02:11:27.145Z,26.69
2023-01-26T02:12:31.178Z,26.68
2023-01-26T02:13:34.919Z,26.79
2023-01-26T02:14:39.524Z,26.98
2023-01-26T02:15:42.260Z,26.88
2023-01-26T02:16:44.212Z,26.71
2023-01-26T02:17:46.197Z,26.76
2023-01-26T02:18:48.163Z,27.00
2023-01-26T02:20:02.711Z,26.95
2023-01-26T02:21:08.805Z,26.89
2023-01-26T02:22:20.275Z,26.84
2023-01-26T02:23:42.370Z,26.67
2023-01-26T02:24:45.078Z,26.76
2023-01-26T02:25:46.865Z,26.56
2023-01-26T02:26:49.115Z,26.32
2023-01-26T02:27:51.540Z,26.95
2023-01-26T02:28:53.880Z,27.17
2023-01-26T02:29:57.054Z,26.95
2023-01-26T02:30:59.698Z,26.71
2023-01-26T02:32:01.837Z,27.04
2023-01-26T02:33:04.199Z,27.06
2023-01-26T02:34:06.280Z,26.84
2023-01-26T02:35:08.608Z,26.72
2023-01-26T02:36:18.164Z,26.95
2023-01-26T02:37:19.947Z,27.03
2023-01-26T02:38:23.713Z,26.86
2023-01-26T02:39:47.601Z,27.05
2023-01-26T02:41:02.524Z,26.73
2023-01-26T02:42:23.090Z,26.73
2023-01-26T02:43:26.694Z,26.58
2023-01-26T02:44:29.751Z,26.69
2023-01-26T02:45:33.914Z,26.89
2023-01-26T02:46:35.846Z,26.98
2023-01-26T02:47:40.453Z,27.03
2023-01-26T02:49:00.611Z,26.86
2023-01-26T02:50:02.464Z,26.58
2023-01-26T02:51:06.207Z,27.14
2023-01-26T02:52:08.607Z,26.82
2023-01-26T02:53:10.789Z,26.87
2023-01-26T02:54:32.586Z,26.90
2023-01-26T02:55:35.024Z,26.96
2023-01-26T02:56:42.741Z,26.80
2023-01-26T02:57:45.213Z,26.56
2023-01-26T02:58:47.101Z,26.62
2023-01-26T02:59:49.086Z,27.01
2023-01-26T03:00:50.988Z,26.81
2023-01-26T03:01:55.671Z,26.70
2023-01-26T03:03:00.764Z,27.24
2023-01-26T03:04:02.824Z,26.61
2023-01-26T03:05:04.947Z,26.86
2023-01-26T03:06:07.754Z,27.01
2023-01-26T03:07:09.818Z,27.09
2023-01-26T03:08:11.702Z,26.96
2023-01-26T03:09:13.913Z,26.70
2023-01-26T03:10:16.745Z,26.99
2023-01-26T03:11:18.513Z,26.68
2023-01-26T03:12:20.383Z,26.81
2023-01-26T03:13:22.191Z,27.11
2023-01-26T03:14:24.055Z,26.87
2023-01-26T03:15:42.766Z,27.12
2023-01-26T03:16:45.806Z,26.66
2023-01-26T03:17:47.615Z,26.46
2023-01-26T03:19:04.483Z,27.05
2023-01-26T03:20:25.975Z,26.70
2023-01-26T03:21:46.804Z,26.98
2023-01-26T03:23:07.075Z,26.85
2023-01-26T03:24:30.969Z,26.56
2023-01-26T03:25:52.962Z,26.74
2023-01-26T03:27:13.530Z,26.84
2023-01-26T03:28:15.359Z,26.73
2023-01-26T03:29:17.806Z,26.56
2023-01-26T03:30:20.308Z,26.55
2023-01-26T03:31:24.170Z,26.78
2023-01-26T03:32:26.163Z,26.83
2023-01-26T03:33:28.938Z,27.13
2023-01-26T03:34:30.967Z,26.74
2023-01-26T03:35:33.507Z,26.87
2023-01-26T03:36:35.440Z,26.75
2023-01-26T03:37:44.821Z,26.85
2023-01-26T03:38:54.175Z,26.85
2023-01-26T03:40:15.585Z,26.80
2023-01-26T03:41:36.844Z,26.49
2023-01-26T03:42:57.073Z,26.60
2023-01-26T03:44:17.439Z,26.56
2023-01-26T03:45:38.070Z,26.81
2023-01-26T03:46:58.731Z,26.45
2023-01-26T03:48:27.987Z,26.54
2023-01-26T03:49:48.492Z,26.51
2023-01-26T03:51:08.725Z,26.66
2023-01-26T03:52:28.963Z,26.79
2023-01-26T03:53:49.045Z,26.65
2023-01-26T03:55:09.352Z,26.13
2023-01-26T03:56:32.675Z,26.33
2023-01-26T03:57:39.635Z,26.38
2023-01-26T03:58:41.593Z,26.76
2023-01-26T03:59:44.192Z,26.54
2023-01-26T04:00:51.173Z,26.66
2023-01-26T04:02:11.624Z,26.75
2023-01-26T04:03:31.938Z,26.72
2023-01-26T04:04:52.438Z,26.67
2023-01-26T04:06:19.011Z,26.68
2023-01-26T04:07:42.234Z,26.68
2023-01-26T04:08:47.063Z,26.54
2023-01-26T04:09:49.363Z,26.67
2023-01-26T04:10:51.935Z,26.55
2023-01-26T04:11:54.179Z,26.49
2023-01-26T04:13:14.592Z,26.64
2023-01-26T04:14:50.453Z,26.49
2023-01-26T04:16:17.260Z,26.60
2023-01-26T04:17:37.988Z,26.41
2023-01-26T04:18:58.300Z,26.48
2023-01-26T04:20:18.947Z,26.54
2023-01-26T04:22:29.009Z,26.38
2023-01-26T04:23:31.566Z,26.54
2023-01-26T04:24:33.530Z,26.45
2023-01-26T04:25:35.346Z,26.58
2023-01-26T04:26:37.485Z,26.58
2023-01-26T04:27:43.773Z,26.53
2023-01-26T04:28:45.694Z,26.52
2023-01-26T04:29:47.598Z,26.73
2023-01-26T04:30:49.755Z,26.75
2023-01-26T04:31:51.767Z,26.45
2023-01-26T04:32:56.271Z,26.60
2023-01-26T04:33:59.555Z,26.70
2023-01-26T04:35:01.434Z,26.51
2023-01-26T04:36:07.967Z,26.69
2023-01-26T04:37:12.891Z,26.60
2023-01-26T04:38:21.263Z,26.51
2023-01-26T04:39:23.423Z,26.70
2023-01-26T04:40:29.267Z,26.33
2023-01-26T04:41:32.412Z,26.35
2023-01-26T04:42:39.230Z,26.31
2023-01-26T04:43:41.639Z,26.25
2023-01-26T04:44:43.467Z,26.61
2023-01-26T04:45:45.565Z,26.18
2023-01-26T04:46:48.931Z,26.48
2023-01-26T04:47:51.875Z,26.21
2023-01-26T04:48:53.717Z,26.58
2023-01-26T04:49:55.681Z,26.53
2023-01-26T04:51:04.769Z,26.42
2023-01-26T04:52:06.751Z,26.22
2023-01-26T04:53:09.858Z,26.55
2023-01-26T04:54:12.514Z,26.16
2023-01-26T04:55:17.916Z,26.33
2023-01-26T04:56:22.728Z,26.04
2023-01-26T04:57:25.489Z,26.08
2023-01-26T04:58:27.872Z,26.28
2023-01-26T04:59:30.870Z,25.94
2023-01-26T05:00:35.954Z,26.29
2023-01-26T05:01:39.004Z,26.26
2023-01-26T05:02:42.239Z,26.00
2023-01-26T05:03:45.181Z,26.34
2023-01-26T05:04:47.431Z,26.13
2023-01-26T05:05:52.676Z,26.06
2023-01-26T05:06:56.311Z,26.05
2023-01-26T05:08:00.596Z,26.20
2023-01-26T05:09:05.661Z,25.94
2023-01-26T05:10:10.213Z,25.99
2023-01-26T05:11:39.157Z,25.79
2023-01-26T05:13:16.215Z,25.93
2023-01-26T05:14:40.960Z,25.83
2023-01-26T05:15:56.018Z,25.68
2023-01-26T05:17:20.576Z,25.60
2023-01-26T05:18:29.508Z,25.56
2023-01-26T05:19:39.595Z,26.01
2023-01-26T05:20:52.818Z,25.97
2023-01-26T05:22:00.706Z,26.01
2023-01-26T05:23:03.876Z,25.92
2023-01-26T05:24:24.414Z,25.81
2023-01-26T05:25:46.514Z,25.61
2023-01-26T05:27:08.675Z,25.77
2023-01-26T05:28:10.934Z,25.84
2023-01-26T05:29:12.914Z,26.15
2023-01-26T05:30:15.993Z,25.98
2023-01-26T05:31:18.281Z,26.12
2023-01-26T05:32:20.214Z,26.16
2023-01-26T05:33:22.272Z,25.87
2023-01-26T05:34:25.199Z,25.78
2023-01-26T05:35:27.078Z,26.13
2023-01-26T05:36:28.891Z,26.08
2023-01-26T05:37:31.930Z,25.84
2023-01-26T05:38:35.007Z,25.82
2023-01-26T05:39:36.818Z,25.90
2023-01-26T05:40:40.716Z,25.80
2023-01-26T05:41:42.530Z,25.95
2023-01-26T05:43:04.730Z,26.08
2023-01-26T05:44:29.827Z,25.95
2023-01-26T05:45:39.567Z,25.67
2023-01-26T05:46:41.513Z,25.96
2023-01-26T05:47:44.965Z,26.11
2023-01-26T05:48:46.784Z,25.75
2023-01-26T05:49:48.800Z,26.17
2023-01-26T05:50:58.865Z,26.23
2023-01-26T05:52:01.376Z,25.76
2023-01-26T05:53:04.445Z,26.14
2023-01-26T05:54:07.278Z,25.83
2023-01-26T05:55:09.941Z,25.95
2023-01-26T05:56:11.829Z,25.85
2023-01-26T05:57:18.841Z,25.98
2023-01-26T05:58:40.944Z,25.57
2023-01-26T05:59:42.869Z,25.83
2023-01-26T06:00:44.766Z,25.97
2023-01-26T06:01:54.240Z,25.94
2023-01-26T06:02:56.164Z,26.23
2023-01-26T06:03:58.343Z,25.67
2023-01-26T06:05:03.495Z,25.71
2023-01-26T06:06:05.559Z,25.61
2023-01-26T06:07:23.328Z,25.83
2023-01-26T06:08:39.167Z,25.73
2023-01-26T06:10:04.874Z,25.51
2023-01-26T06:11:33.890Z,25.68
2023-01-26T06:12:59.455Z,25.59
2023-01-26T06:14:27.450Z,25.21
2023-01-26T06:15:30.259Z,25.36
2023-01-26T06:16:32.157Z,25.21
2023-01-26T06:17:34.662Z,25.57
2023-01-26T06:18:39.218Z,25.27
2023-01-26T06:19:41.389Z,25.07
2023-01-26T06:20:44.467Z,24.91
2023-01-26T06:21:46.550Z,25.12
2023-01-26T06:22:48.357Z,25.14
2023-01-26T06:23:50.657Z,25.01
2023-01-26T06:24:52.586Z,24.70
2023-01-26T06:25:59.618Z,24.78
2023-01-26T06:27:01.753Z,25.04
2023-01-26T06:28:03.999Z,24.90
2023-01-26T06:29:06.320Z,24.83
2023-01-26T06:30:11.148Z,24.54
2023-01-26T06:31:13.278Z,24.35
2023-01-26T06:32:15.839Z,24.43
2023-01-26T06:33:19.828Z,24.46
2023-01-26T06:34:22.067Z,24.25
2023-01-26T06:35:24.581Z,24.39
2023-01-26T06:36:28.365Z,24.04
2023-01-26T06:37:30.862Z,24.22
2023-01-26T06:38:32.962Z,24.23
2023-01-26T06:39:34.970Z,24.11
2023-01-26T06:40:36.809Z,24.10
2023-01-26T06:41:39.703Z,23.70
2023-01-26T06:42:48.656Z,23.49
2023-01-26T06:43:52.469Z,23.76
2023-01-26T06:44:54.350Z,23.66
2023-01-26T06:45:58.140Z,23.73
2023-01-26T06:47:00.061Z,23.74
2023-01-26T06:48:02.103Z,23.94
2023-01-26T06:49:04.592Z,23.30
2023-01-26T06:50:08.428Z,23.24
2023-01-26T06:51:16.228Z,23.57
2023-01-26T06:52:25.343Z,23.42
2023-01-26T06:53:41.754Z,23.33
2023-01-26T06:55:03.162Z,23.41
2023-01-26T06:56:28.775Z,23.25
2023-01-26T06:57:55.093Z,22.80
2023-01-26T06:59:29.520Z,23.14
2023-01-26T07:00:55.853Z,23.08
2023-01-26T07:02:02.072Z,22.73
2023-01-26T07:03:03.900Z,22.87
2023-01-26T07:04:05.667Z,22.78
2023-01-26T07:05:07.993Z,23.04
2023-01-26T07:06:13.013Z,22.83
2023-01-26T07:07:15.321Z,23.07
2023-01-26T07:08:17.160Z,22.99
2023-01-26T07:09:18.917Z,22.79
2023-01-26T07:10:20.920Z,22.87
2023-01-26T07:11:22.741Z,23.02
2023-01-26T07:12:24.603Z,22.92
2023-01-26T07:13:26.471Z,22.71
2023-01-26T07:14:28.275Z,22.75
2023-01-26T07:15:30.121Z,22.95
2023-01-26T07:16:33.766Z,22.48
2023-01-26T07:17:36.117Z,22.56
2023-01-26T07:18:38.056Z,22.95
2023-01-26T07:19:39.840Z,22.50
2023-01-26T07:20:41.746Z,22.93
2023-01-26T07:21:43.530Z,22.93
2023-01-26T07:22:45.335Z,22.63
2023-01-26T07:23:47.501Z,22.86
2023-01-26T07:24:49.295Z,22.48
2023-01-26T07:25:51.097Z,22.89
2023-01-26T07:26:52.920Z,22.47
2023-01-26T07:27:58.687Z,22.56
2023-01-26T07:29:00.508Z,22.65
2023-01-26T07:30:02.317Z,22.77
2023-01-26T07:31:06.189Z,22.49
2023-01-26T07:32:08.024Z,22.58
2023-01-26T07:33:09.890Z,22.71
2023-01-26T07:34:12.267Z,22.73
2023-01-26T07:35:14.151Z,22.39
2023-01-26T07:36:15.986Z,22.41
2023-01-26T07:37:17.751Z,22.52
2023-01-26T07:38:19.959Z,22.63
2023-01-26T07:39:21.783Z,22.54
2023-01-26T07:40:23.570Z,22.78
2023-01-26T07:41:25.364Z,22.22
2023-01-26T07:42:27.139Z,22.71
2023-01-26T07:43:55.173Z,22.53
2023-01-26T07:44:57.108Z,22.40
2023-01-26T07:45:58.968Z,22.78
2023-01-26T07:47:00.742Z,22.68
2023-01-26T07:48:02.881Z,22.48
2023-01-26T07:49:04.746Z,22.62
2023-01-26T07:50:07.356Z,22.25
2023-01-26T07:51:11.228Z,22.51
2023-01-26T07:52:13.312Z,22.40
2023-01-26T07:53:19.323Z,22.68
2023-01-26T07:54:21.691Z,22.56
2023-01-26T07:55:26.335Z,22.33
2023-01-26T07:56:28.162Z,22.39
2023-01-26T07:57:30.235Z,22.18
2023-01-26T07:58:32.008Z,22.57
2023-01-26T07:59:34.260Z,22.53
2023-01-26T08:00:36.171Z,22.38
2023-01-26T08:01:38.003Z,22.76
2023-01-26T08:02:39.828Z,22.36
2023-01-26T08:03:42.703Z,22.41
2023-01-26T08:04:44.565Z,22.50
2023-01-26T08:05:47.287Z,22.29
2023-01-26T08:06:52.026Z,22.33
2023-01-26T08:07:58.373Z,22.39
2023-01-26T08:09:00.215Z,22.42
2023-01-26T08:10:02.178Z,22.44
2023-01-26T08:11:04.151Z,22.46
2023-01-26T08:12:06.255Z,22.19
2023-01-26T08:13:08.106Z,22.35
2023-01-26T08:14:10.240Z,22.27
2023-01-26T08:15:12.297Z,22.43
2023-01-26T08:16:14.525Z,22.65
2023-01-26T08:17:19.503Z,22.58
2023-01-26T08:18:21.501Z,22.50
2023-01-26T08:19:23.271Z,22.11
2023-01-26T08:20:25.167Z,22.19
2023-01-26T08:21:27.071Z,22.03
2023-01-26T08:22:28.893Z,22.04
2023-01-26T08:23:31.289Z,22.44
2023-01-26T08:24:33.174Z,22.36
2023-01-26T08:25:35.005Z,22.54
2023-01-26T08:26:36.818Z,22.15
2023-01-26T08:27:38.647Z,22.17
2023-01-26T08:28:41.166Z,22.16
2023-01-26T08:29:43.098Z,22.34
2023-01-26T08:30:44.947Z,22.20
2023-01-26T08:31:47.009Z,22.46
2023-01-26T08:32:48.841Z,22.42
2023-01-26T08:33:52.047Z,22.41
2023-01-26T08:34:53.947Z,22.24
2023-01-26T08:36:01.557Z,22.08
2023-01-26T08:37:03.862Z,22.08
2023-01-26T08:38:06.136Z,22.06
2023-01-26T08:39:07.931Z,22.00
2023-01-26T08:40:10.793Z,22.14
2023-01-26T08:41:12.944Z,22.09
2023-01-26T08:42:14.860Z,22.42
2023-01-26T08:43:16.708Z,21.87
2023-01-26T08:44:18.528Z,22.35
2023-01-26T08:45:20.619Z,22.03
2023-01-26T08:46:22.379Z,22.19
2023-01-26T08:47:24.201Z,22.20
2023-01-26T08:48:26.490Z,22.22
2023-01-26T08:49:28.434Z,22.20
2023-01-26T08:50:30.251Z,22.36
2023-01-26T08:51:32.085Z,22.30
2023-01-26T08:52:33.915Z,22.17
2023-01-26T08:53:37.730Z,22.69
2023-01-26T08:54:39.764Z,22.08
2023-01-26T08:55:41.621Z,22.33
2023-01-26T08:56:43.429Z,22.39
2023-01-26T08:57:47.104Z,21.85
2023-01-26T08:58:48.906Z,21.97
2023-01-26T08:59:50.810Z,22.06
2023-01-26T09:00:52.717Z,22.03
2023-01-26T09:01:55.856Z,21.96
2023-01-26T09:03:05.983Z,22.32
2023-01-26T09:04:07.960Z,22.04
2023-01-26T09:05:10.183Z,22.51
2023-01-26T09:06:13.703Z,22.07
2023-01-26T09:07:15.567Z,22.08
2023-01-26T09:08:17.500Z,22.15
2023-01-26T09:09:19.294Z,22.44
2023-01-26T09:10:21.184Z,22.03
2023-01-26T09:11:22.943Z,21.95
2023-01-26T09:12:24.755Z,21.92
2023-01-26T09:13:26.710Z,22.41
2023-01-26T09:14:28.886Z,22.09
2023-01-26T09:15:30.851Z,22.32
2023-01-26T09:16:32.662Z,22.29
2023-01-26T09:17:34.708Z,22.14
2023-01-26T09:18:36.622Z,22.36
2023-01-26T09:19:39.029Z,22.23
2023-01-26T09:20:40.911Z,22.24
2023-01-26T09:21:42.723Z,22.06
2023-01-26T09:22:44.776Z,21.95
2023-01-26T09:23:47.032Z,22.06
2023-01-26T09:24:48.866Z,22.33
2023-01-26T09:25:54.270Z,22.20
2023-01-26T09:26:56.034Z,21.86
2023-01-26T09:27:57.875Z,21.85
2023-01-26T09:28:59.653Z,22.32
2023-01-26T09:30:04.571Z,22.11
2023-01-26T09:31:08.970Z,22.01
2023-01-26T09:32:10.855Z,21.94
2023-01-26T09:33:12.702Z,21.70
2023-01-26T09:34:14.617Z,22.28
2023-01-26T09:35:17.012Z,22.37
2023-01-26T09:36:19.513Z,22.28
2023-01-26T09:37:21.377Z,21.88
2023-01-26T09:38:23.236Z,21.94
2023-01-26T09:39:25.133Z,22.25
2023-01-26T09:40:51.075Z,21.86
2023-01-26T09:42:27.881Z,22.07
2023-01-26T09:43:50.504Z,21.84
2023-01-26T09:45:12.946Z,21.84
2023-01-26T09:46:49.279Z,21.88
2023-01-26T09:48:20.200Z,22.02
2023-01-26T09:49:29.348Z,21.67
2023-01-26T09:50:37.957Z,22.20
2023-01-26T09:51:46.471Z,22.29
2023-01-26T09:52:54.139Z,21.93
2023-01-26T09:54:18.721Z,21.96
2023-01-26T09:55:23.160Z,21.81
2023-01-26T09:56:30.796Z,22.16
2023-01-26T09:57:49.278Z,22.50
2023-01-26T09:59:04.919Z,21.80
2023-01-26T10:00:12.805Z,21.92
2023-01-26T10:01:24.618Z,22.17
2023-01-26T10:02:43.640Z,22.09
2023-01-26T10:04:23.249Z,21.83
2023-01-26T10:05:45.986Z,21.91
2023-01-26T10:06:48.945Z,22.12
2023-01-26T10:07:56.264Z,22.09
2023-01-26T10:09:06.799Z,21.83
2023-01-26T10:10:16.242Z,22.01
2023-01-26T10:11:24.955Z,22.34
2023-01-26T10:12:34.715Z,21.85
2023-01-26T10:13:36.616Z,22.24
2023-01-26T10:14:51.471Z,21.92
2023-01-26T10:16:00.193Z,22.03
2023-01-26T10:17:05.170Z,22.20
2023-01-26T10:18:15.957Z,21.98
2023-01-26T10:19:36.544Z,21.90
2023-01-26T10:20:43.605Z,21.95
2023-01-26T10:21:49.762Z,22.33
2023-01-26T10:23:00.097Z,22.31
2023-01-26T10:24:03.267Z,21.90
2023-01-26T10:25:15.084Z,22.19
2023-01-26T10:26:20.223Z,21.98
2023-01-26T10:27:22.285Z,22.41
2023-01-26T10:28:31.215Z,22.12
2023-01-26T10:29:32.984Z,22.17
2023-01-26T10:30:34.904Z,22.17
2023-01-26T10:31:36.896Z,22.16
2023-01-26T10:32:40.790Z,22.20
2023-01-26T10:34:21.040Z,22.00
2023-01-26T10:35:25.102Z,22.03
2023-01-26T10:36:31.985Z,21.87
2023-01-26T10:37:35.058Z,21.97
2023-01-26T10:38:36.831Z,21.90
2023-01-26T10:39:58.848Z,22.27
2023-01-26T10:41:14.889Z,22.25
2023-01-26T10:42:19.451Z,22.19
2023-01-26T10:43:21.259Z,22.16
2023-01-26T10:44:41.174Z,21.88
2023-01-26T10:45:47.919Z,21.70
2023-01-26T10:47:05.274Z,21.99
2023-01-26T10:48:26.902Z,22.19
2023-01-26T10:49:29.144Z,22.03
2023-01-26T10:50:32.137Z,21.99
2023-01-26T10:51:35.963Z,21.94
2023-01-26T10:52:37.747Z,22.21
2023-01-26T10:53:39.524Z,22.15
2023-01-26T10:54:43.993Z,22.30
2023-01-26T10:55:58.724Z,22.11
2023-01-26T10:57:10.519Z,22.17
2023-01-26T10:58:40.924Z,21.65
2023-01-26T11:00:08.642Z,21.77
2023-01-26T11:01:12.486Z,21.91
2023-01-26T11:02:14.421Z,21.94
2023-01-26T11:03:17.665Z,21.80
2023-01-26T11:04:20.034Z,21.95
2023-01-26T11:05:24.441Z,21.83
2023-01-26T11:06:29.056Z,22.04
2023-01-26T11:07:51.820Z,22.08
2023-01-26T11:08:53.625Z,21.82
2023-01-26T11:09:55.885Z,22.17
2023-01-26T11:10:57.777Z,21.94
2023-01-26T11:12:02.662Z,22.34
2023-01-26T11:13:19.287Z,21.84
2023-01-26T11:14:21.208Z,21.76
2023-01-26T11:15:24.834Z,22.27
2023-01-26T11:16:28.210Z,21.97
2023-01-26T11:17:38.204Z,21.81
2023-01-26T11:18:52.040Z,22.33
2023-01-26T11:20:09.659Z,22.14
2023-01-26T11:21:23.066Z,21.90
2023-01-26T11:22:49.327Z,22.05
2023-01-26T11:23:54.047Z,22.18
2023-01-26T11:25:46.518Z,21.70
2023-01-26T11:27:14.876Z,21.69
2023-01-26T11:28:40.008Z,22.19
2023-01-26T11:29:50.435Z,21.62
2023-01-26T11:31:13.445Z,22.01
2023-01-26T11:32:52.515Z,22.19
2023-01-26T11:34:32.697Z,22.02
2023-01-26T11:35:49.141Z,21.73
2023-01-26T11:37:07.167Z,21.78
2023-01-26T11:38:32.730Z,21.62
2023-01-26T11:39:55.992Z,21.66
2023-01-26T11:41:08.273Z,21.83
2023-01-26T11:42:37.662Z,22.09
2023-01-26T11:44:00.926Z,22.04
2023-01-26T11:45:27.588Z,22.11
2023-01-26T11:46:50.122Z,22.24
2023-01-26T11:48:10.263Z,21.90
2023-01-26T11:49:36.890Z,21.87
2023-01-26T11:50:47.988Z,22.44
2023-01-26T11:52:07.132Z,22.00
2023-01-26T11:53:45.635Z,22.20
2023-01-26T11:55:05.927Z,22.32
2023-01-26T11:56:27.959Z,22.15
2023-01-26T11:57:44.956Z,21.91
2023-01-26T11:59:17.593Z,22.22
2023-01-26T12:00:30.726Z,21.80
2023-01-26T12:01:42.187Z,22.12
2023-01-26T12:02:59.373Z,22.13
2023-01-26T12:04:01.238Z,21.77
2023-01-26T12:05:15.605Z,22.02
2023-01-26T12:06:31.280Z,22.02
2023-01-26T12:07:54.719Z,21.82
2023-01-26T12:09:19.028Z,21.78
2023-01-26T12:10:28.855Z,21.89
2023-01-26T12:11:38.399Z,22.30
2023-01-26T12:12:55.947Z,21.77
2023-01-26T12:14:08.555Z,22.17
2023-01-26T12:15:13.514Z,22.38
2023-01-26T12:16:24.328Z,22.36
2023-01-26T12:17:58.259Z,21.95
2023-01-26T12:19:17.918Z,21.94
2023-01-26T12:20:46.927Z,21.85
2023-01-26T12:21:50.661Z,21.80
2023-01-26T12:23:13.402Z,22.12
2023-01-26T12:25:04.830Z,22.26
2023-01-26T12:26:12.334Z,21.94
2023-01-26T12:27:25.797Z,21.93
2023-01-26T12:28:49.543Z,22.28
2023-01-26T12:30:22.790Z,21.80
2023-01-26T12:31:35.905Z,21.75
2023-01-26T12:32:37.904Z,22.33
2023-01-26T12:33:40.171Z,21.92
2023-01-26T12:34:42.036Z,22.08
2023-01-26T12:36:07.253Z,22.25
2023-01-26T12:37:26.994Z,22.36
2023-01-26T12:38:46.870Z,22.15
2023-01-26T12:39:58.940Z,22.19
2023-01-26T12:41:26.706Z,22.05
2023-01-26T12:42:57.668Z,22.19
2023-01-26T12:44:36.971Z,21.90
2023-01-26T12:45:42.413Z,21.83
2023-01-26T12:46:50.846Z,22.07
2023-01-26T12:48:08.560Z,21.79
2023-01-26T12:49:21.462Z,21.80
2023-01-26T12:50:39.948Z,22.25
2023-01-26T12:51:48.229Z,21.85
2023-01-26T12:52:56.540Z,22.05
2023-01-26T12:54:04.678Z,22.03
2023-01-26T12:55:06.675Z,21.87
2023-01-26T12:56:25.484Z,22.34
2023-01-26T12:57:36.814Z,22.21
2023-01-26T12:58:45.371Z,21.86
2023-01-26T12:59:49.164Z,21.83
2023-01-26T13:01:26.415Z,21.97
2023-01-26T13:02:31.925Z,22.04
2023-01-26T13:03:45.293Z,21.92
2023-01-26T13:04:49.242Z,22.10
2023-01-26T13:06:14.100Z,21.93
2023-01-26T13:07:37.707Z,21.76
2023-01-26T13:08:41.379Z,21.96
2023-01-26T13:10:15.516Z,21.77
2023-01-26T13:11:39.353Z,21.88
2023-01-26T13:12:45.119Z,22.08
2023-01-26T13:13:57.170Z,21.89
2023-01-26T13:15:00.093Z,21.96
2023-01-26T13:16:16.908Z,22.35
2023-01-26T13:17:19.149Z,22.08
2023-01-26T13:18:50.778Z,22.17
2023-01-26T13:19:55.007Z,21.84
2023-01-26T13:21:01.008Z,22.21
2023-01-26T13:22:03.659Z,22.05
2023-01-26T13:23:28.462Z,22.13
2023-01-26T13:24:30.441Z,22.22
2023-01-26T13:25:32.761Z,22.02
2023-01-26T13:26:34.498Z,21.79
2023-01-26T13:27:39.340Z,21.78
2023-01-26T13:28:41.465Z,21.88
2023-01-26T13:29:55.379Z,22.02
2023-01-26T13:31:06.264Z,21.81
2023-01-26T13:32:14.102Z,21.90
2023-01-26T13:33:22.354Z,21.74
2023-01-26T13:34:36.467Z,22.15
2023-01-26T13:35:39.168Z,21.79
2023-01-26T13:36:47.786Z,22.06
2023-01-26T13:37:52.630Z,21.95
2023-01-26T13:39:01.604Z,22.00
2023-01-26T13:40:14.651Z,22.03
2023-01-26T13:41:22.132Z,22.26
2023-01-26T13:42:28.637Z,22.20
2023-01-26T13:43:53.555Z,22.19
2023-01-26T13:45:03.204Z,21.99
2023-01-26T13:46:20.081Z,22.07
2023-01-26T13:47:28.204Z,22.22
2023-01-26T13:48:48.762Z,21.77
2023-01-26T13:49:50.801Z,21.95
2023-01-26T13:50:52.614Z,22.21
2023-01-26T13:51:54.610Z,21.97
2023-01-26T13:52:56.992Z,21.96
2023-01-26T13:54:04.847Z,22.16
2023-01-26T13:55:22.386Z,22.31
2023-01-26T13:56:27.231Z,21.93
2023-01-26T13:57:31.514Z,21.76
2023-01-26T13:58:34.280Z,22.00
2023-01-26T13:59:49.015Z,21.71
2023-01-26T14:01:06.475Z,21.97
2023-01-26T14:02:23.898Z,22.10
2023-01-26T14:03:25.926Z,21.73
2023-01-26T14:04:30.348Z,21.69
2023-01-26T14:05:32.784Z,21.75
2023-01-26T14:06:37.611Z,22.13
2023-01-26T14:07:42.772Z,22.18
2023-01-26T14:08:56.323Z,22.02
2023-01-26T14:10:01.776Z,21.96
2023-01-26T14:11:15.076Z,21.88
2023-01-26T14:12:25.294Z,21.79
2023-01-26T14:13:38.411Z,21.88
2023-01-26T14:14:40.879Z,21.60
2023-01-26T14:15:42.793Z,22.02
2023-01-26T14:16:44.792Z,21.79
2023-01-26T14:17:57.010Z,21.90
2023-01-26T14:19:16.869Z,21.88
2023-01-26T14:20:39.952Z,21.92
2023-01-26T14:21:55.686Z,21.87
2023-01-26T14:23:18.596Z,22.11
2023-01-26T14:24:27.004Z,21.89
2023-01-26T14:25:28.846Z,21.87
2023-01-26T14:26:34.145Z,22.07
2023-01-26T14:27:35.891Z,21.83
2023-01-26T14:28:42.484Z,22.17
2023-01-26T14:29:44.361Z,21.97
2023-01-26T14:30:52.774Z,22.06
2023-01-26T14:31:57.701Z,21.94
2023-01-26T14:33:15.384Z,22.17
2023-01-26T14:34:28.663Z,22.03
2023-01-26T14:35:31.796Z,22.02